Time;durP1;ratioP1;P1;durP2;ratioP2;P2;SDS_P1;SDS_P2;PMS_P1;PMS_P2;Temp;Humidity;BMP_temperature;BMP_pressure;BME280_temperature;BME280_humidity;BME280_pressure;Samples;Min_cycle;Max_cycle;Signal;HPM_P1;HPM_P2
2024/03/20 00:00:14;;;;;;;2.75;2.55;;;;;;;2.38;51.97;93538.41;522819;28;828;-67
2024/03/20 00:00:30;;;;;;;2.42;2.17;;;;;;;2.38;52.29;93546.56;522736;28;800;-67
2024/03/20 00:00:45;;;;;;;3.05;2.33;;;;;;;2.40;51.79;93541.38;522804;28;823;-68
2024/03/20 00:01:00;;;;;;;3.33;2.43;;;;;;;2.41;52.25;93540.13;522754;28;789;-68
2024/03/20 00:01:16;;;;;;;2.70;2.40;;;;;;;2.41;52.38;93543.59;522840;28;760;-68
2024/03/20 00:01:32;;;;;;;2.67;2.47;;;;;;;2.41;52.53;93543.59;522311;28;836;-68
2024/03/20 00:01:48;;;;;;;3.63;2.75;;;;;;;2.39;53.02;93540.63;520876;28;821;-67
2024/03/20 00:02:03;;;;;;;3.90;2.65;;;;;;;2.37;53.03;93539.63;520781;28;858;-68
2024/03/20 00:02:19;;;;;;;2.77;2.43;;;;;;;2.36;52.88;93543.59;520882;28;860;-67
2024/03/20 00:02:34;;;;;;;2.70;2.50;;;;;;;2.32;53.01;93532.94;520844;28;753;-68
2024/03/20 00:02:50;;;;;;;3.10;2.70;;;;;;;2.31;53.78;93545.06;520799;28;1001;-67
2024/03/20 00:03:05;;;;;;;3.53;2.70;;;;;;;2.30;53.93;93543.56;520861;28;840;-69
2024/03/20 00:03:21;;;;;;;3.43;2.93;;;;;;;2.30;53.87;93547.03;520774;28;839;-68
2024/03/20 00:03:36;;;;;;;4.28;3.42;;;;;;;2.31;53.76;93547.78;520845;28;761;-67
2024/03/20 00:03:52;;;;;;;4.50;3.40;;;;;;;2.33;54.28;93541.84;520865;28;832;-67
2024/03/20 00:04:07;;;;;;;5.05;3.72;;;;;;;2.32;53.78;93546.53;520880;28;835;-68
2024/03/20 00:04:23;;;;;;;7.97;4.97;;;;;;;2.31;54.54;93545.06;520801;28;815;-68
2024/03/20 00:04:38;;;;;;;9.45;5.78;;;;;;;2.32;54.33;93543.09;520855;28;808;-68
2024/03/20 00:04:54;;;;;;;8.77;5.60;;;;;;;2.31;54.45;93545.06;520851;28;828;-67
2024/03/20 00:05:09;;;;;;;9.38;5.63;;;;;;;2.33;54.92;93544.56;520892;28;749;-67
2024/03/20 00:05:25;;;;;;;9.73;5.67;;;;;;;2.33;54.56;93542.59;520883;28;872;-68
2024/03/20 00:05:40;;;;;;;8.90;5.78;;;;;;;2.34;54.64;93543.34;520858;28;745;-68
2024/03/20 00:05:56;;;;;;;10.27;6.07;;;;;;;2.33;54.27;93553.50;520839;28;776;-67
2024/03/20 00:06:11;;;;;;;10.55;6.03;;;;;;;2.32;53.90;93543.09;520848;28;793;-67
2024/03/20 00:06:27;;;;;;;9.67;6.13;;;;;;;2.34;54.05;93546.78;520846;28;808;-68
2024/03/20 00:06:44;;;;;;;9.52;6.10;;;;;;;2.32;54.10;93534.94;520847;28;879;-68
2024/03/20 00:06:59;;;;;;;9.48;5.95;;;;;;;2.36;54.02;93549.03;520859;28;801;-68
2024/03/20 00:07:15;;;;;;;8.47;5.57;;;;;;;2.35;53.44;93544.81;520926;28;829;-68
2024/03/20 00:07:30;;;;;;;10.40;6.30;;;;;;;2.30;53.63;93544.31;520768;28;768;-67
2024/03/20 00:07:46;;;;;;;12.87;7.20;;;;;;;2.34;53.46;93552.25;520919;28;816;-68
2024/03/20 00:08:01;;;;;;;10.75;6.78;;;;;;;2.34;54.04;93544.06;520940;28;798;-68
2024/03/20 00:08:17;;;;;;;10.43;6.25;;;;;;;2.33;53.66;93545.31;520787;28;1069;-67
2024/03/20 00:08:32;;;;;;;13.03;6.97;;;;;;;2.34;53.85;93544.06;520836;28;836;-68
2024/03/20 00:08:48;;;;;;;13.83;7.83;;;;;;;2.33;54.04;93548.03;520851;28;764;-68
2024/03/20 00:09:03;;;;;;;12.82;8.07;;;;;;;2.33;54.08;93548.03;520787;28;836;-68
2024/03/20 00:09:19;;;;;;;15.87;9.53;;;;;;;2.33;53.90;93548.03;520914;28;787;-67
2024/03/20 00:09:35;;;;;;;19.15;10.93;;;;;;;2.32;53.29;93545.81;520877;28;859;-68
2024/03/20 00:09:50;;;;;;;18.17;10.07;;;;;;;2.34;53.10;93551.53;520818;28;820;-67
2024/03/20 00:10:07;;;;;;;18.43;9.67;;;;;;;2.33;53.28;93556.22;520900;28;820;-68
2024/03/20 00:10:22;;;;;;;19.95;10.30;;;;;;;2.34;53.29;93549.53;520760;28;891;-68
2024/03/20 00:10:38;;;;;;;20.25;10.80;;;;;;;2.05;52.87;93506.41;520877;28;745;-68
2024/03/20 00:10:53;;;;;;;20.07;10.47;;;;;;;2.33;53.43;93550.03;520826;28;840;-68
2024/03/20 00:11:09;;;;;;;19.65;10.07;;;;;;;2.33;52.63;93552.75;520888;28;801;-68
2024/03/20 00:11:24;;;;;;;18.17;10.00;;;;;;;2.33;53.74;93547.28;520815;28;785;-67
2024/03/20 00:11:40;;;;;;;18.27;10.35;;;;;;;2.32;53.45;93551.28;520809;28;769;-68
2024/03/20 00:11:56;;;;;;;19.48;10.65;;;;;;;2.24;54.61;93551.00;520868;28;812;-68
2024/03/20 00:12:11;;;;;;;19.40;10.23;;;;;;;2.21;54.13;93560.91;520820;28;777;-68
2024/03/20 00:12:27;;;;;;;16.90;9.60;;;;;;;2.20;54.13;93551.25;520851;28;844;-68
2024/03/20 00:12:43;;;;;;;18.00;10.20;;;;;;;2.01;54.78;93530.41;520794;28;824;-68
2024/03/20 00:12:58;;;;;;;21.67;11.88;;;;;;;2.18;54.85;93558.41;520817;28;815;-68
2024/03/20 00:13:13;;;;;;;23.60;13.03;;;;;;;2.18;55.26;93551.00;520828;28;791;-68
2024/03/20 00:13:29;;;;;;;22.77;13.38;;;;;;;2.19;54.63;93551.72;520787;28;876;-68
2024/03/20 00:13:44;;;;;;;21.17;12.93;;;;;;;2.19;54.46;93555.19;520840;28;903;-68
2024/03/20 00:14:00;;;;;;;23.92;13.18;;;;;;;2.19;54.54;93552.47;520863;28;780;-68
2024/03/20 00:14:16;;;;;;;25.50;13.63;;;;;;;1.93;54.88;93504.88;520869;28;769;-68
2024/03/20 00:14:32;;;;;;;23.30;13.23;;;;;;;2.21;54.49;93557.41;520757;28;769;-68
2024/03/20 00:14:48;;;;;;;23.00;13.15;;;;;;;2.22;54.83;93545.28;520907;28;812;-68
2024/03/20 00:15:06;;;;;;;28.63;13.93;;;;;;;2.20;55.60;93550.50;520912;28;824;-68
2024/03/20 00:15:21;;;;;;;28.02;12.85;;;;;;;2.11;54.98;93550.72;520788;28;899;-68
2024/03/20 00:15:37;;;;;;;23.92;12.43;;;;;;;1.97;55.60;93549.69;520859;28;774;-67
2024/03/20 00:15:52;;;;;;;22.43;11.40;;;;;;;1.89;55.19;93551.41;520805;28;1074;-68
2024/03/20 00:16:10;;;;;;;19.45;10.13;;;;;;;1.83;55.75;93550.66;520779;28;790;-68
2024/03/20 00:16:25;;;;;;;21.52;10.55;;;;;;;1.78;56.22;93550.59;520777;28;825;-68
2024/03/20 00:16:41;;;;;;;20.23;10.07;;;;;;;1.72;56.81;93549.84;520718;28;765;-68
2024/03/20 00:16:57;;;;;;;17.77;9.07;;;;;;;1.69;57.20;93551.56;520708;28;750;-68
2024/03/20 00:17:13;;;;;;;16.58;8.90;;;;;;;1.65;56.86;93553.03;520456;28;785;-67
2024/03/20 00:17:28;;;;;;;13.32;7.75;;;;;;;1.59;57.39;93560.44;520543;28;1968;-68
2024/03/20 00:17:45;;;;;;;11.02;6.75;;;;;;;1.48;57.88;93551.00;520812;28;852;-68
2024/03/20 00:18:01;;;;;;;9.77;6.45;;;;;;;1.45;58.13;93554.69;520893;28;901;-68
2024/03/20 00:18:16;;;;;;;9.00;5.80;;;;;;;1.41;58.38;93553.41;520901;28;985;-68
2024/03/20 00:18:32;;;;;;;6.85;4.80;;;;;;;1.35;58.43;93552.66;520860;28;760;-68
2024/03/20 00:18:47;;;;;;;5.83;4.03;;;;;;;1.39;58.28;93558.59;520852;28;828;-69
2024/03/20 00:19:03;;;;;;;5.30;3.58;;;;;;;1.40;57.99;93557.38;520768;28;749;-68
2024/03/20 00:19:19;;;;;;;4.25;2.95;;;;;;;1.42;57.88;93547.50;520785;28;889;-68
2024/03/20 00:19:35;;;;;;;3.75;3.15;;;;;;;1.45;57.56;93559.41;520898;28;815;-68
2024/03/20 00:19:51;;;;;;;4.20;3.40;;;;;;;1.48;57.47;93556.44;520864;28;852;-68
2024/03/20 00:20:06;;;;;;;5.22;3.28;;;;;;;1.51;57.44;93557.44;520877;28;1090;-68
2024/03/20 00:20:24;;;;;;;4.80;3.33;;;;;;;1.54;57.11;93551.75;520787;28;761;-68
2024/03/20 00:20:41;;;;;;;4.13;3.17;;;;;;;1.56;57.31;93559.44;520750;28;894;-68
2024/03/20 00:20:56;;;;;;;4.35;3.08;;;;;;;1.58;57.30;93553.50;520838;28;804;-68
2024/03/20 00:21:12;;;;;;;4.15;3.10;;;;;;;1.58;57.16;93554.25;520866;28;769;-68
2024/03/20 00:21:28;;;;;;;4.67;3.67;;;;;;;1.58;57.29;93556.22;520823;28;757;-68
2024/03/20 00:21:43;;;;;;;4.53;3.60;;;;;;;1.58;57.64;93559.72;520853;28;816;-68
2024/03/20 00:21:59;;;;;;;5.00;3.90;;;;;;;1.58;57.57;93557.00;520861;28;808;-68
2024/03/20 00:22:14;;;;;;;5.50;4.40;;;;;;;1.60;57.86;93553.78;520864;28;773;-68
2024/03/20 00:22:35;;;;;;;5.32;4.22;;;;;;;1.58;57.84;93551.53;520787;28;801;-68
2024/03/20 00:22:50;;;;;;;5.57;4.70;;;;;;;1.66;57.66;93554.53;520713;28;812;-68
2024/03/20 00:23:07;;;;;;;5.63;4.80;;;;;;;1.68;57.46;93552.06;520905;28;757;-68
2024/03/20 00:23:22;;;;;;;5.25;4.38;;;;;;;1.67;57.54;93556.75;520790;28;1263;-67
2024/03/20 00:23:38;;;;;;;5.68;4.30;;;;;;;1.66;57.23;93551.81;520865;28;816;-68
2024/03/20 00:23:53;;;;;;;5.68;4.25;;;;;;;1.67;57.17;93556.03;520868;28;753;-68
2024/03/20 00:24:09;;;;;;;6.67;4.50;;;;;;;1.64;57.02;93554.28;520723;28;808;-68
2024/03/20 00:24:24;;;;;;;6.93;4.43;;;;;;;1.62;57.24;93557.50;520837;28;757;-68
2024/03/20 00:24:40;;;;;;;6.07;4.30;;;;;;;1.63;56.87;93555.50;520786;28;840;-67
2024/03/20 00:24:56;;;;;;;6.20;4.53;;;;;;;1.62;56.58;93556.75;520882;28;891;-68
2024/03/20 00:25:12;;;;;;;7.90;5.03;;;;;;;1.64;56.64;93557.75;520886;28;875;-68
2024/03/20 00:25:29;;;;;;;8.23;5.27;;;;;;;1.64;56.80;93557.00;520799;28;880;-67
2024/03/20 00:25:44;;;;;;;6.05;4.65;;;;;;;1.65;56.26;93555.75;520923;28;946;-68
2024/03/20 00:26:02;;;;;;;6.43;4.63;;;;;;;1.65;56.42;93558.47;520803;28;1029;-67
2024/03/20 00:26:18;;;;;;;7.70;5.20;;;;;;;1.65;56.25;93556.50;520777;28;813;-68
2024/03/20 00:26:34;;;;;;;8.27;5.20;;;;;;;1.64;56.19;93555.03;520855;28;872;-68
2024/03/20 00:26:50;;;;;;;7.25;4.75;;;;;;;1.65;56.70;93551.06;520814;28;749;-68
2024/03/20 00:27:05;;;;;;;6.43;4.82;;;;;;;1.65;56.31;93556.50;520891;28;797;-68
2024/03/20 00:27:21;;;;;;;6.93;4.53;;;;;;;1.66;56.25;93558.00;520797;28;765;-68
2024/03/20 00:27:36;;;;;;;6.80;3.95;;;;;;;1.67;56.60;93556.03;520846;28;769;-68
2024/03/20 00:27:52;;;;;;;6.77;4.37;;;;;;;1.66;56.64;93558.00;520757;28;757;-68
2024/03/20 00:28:07;;;;;;;5.25;4.40;;;;;;;1.64;56.82;93557.00;520867;28;737;-68
2024/03/20 00:28:23;;;;;;;5.13;4.40;;;;;;;1.65;56.50;93558.47;520751;28;827;-68
2024/03/20 00:28:38;;;;;;;5.13;4.40;;;;;;;1.64;56.91;93557.00;520845;28;765;-68
2024/03/20 00:28:54;;;;;;;5.47;4.30;;;;;;;1.61;57.19;93556.00;520865;28;800;-68
2024/03/20 00:29:09;;;;;;;6.23;4.50;;;;;;;1.53;57.33;93550.28;520816;28;780;-68
2024/03/20 00:29:25;;;;;;;6.87;4.40;;;;;;;1.57;57.59;93560.94;520862;28;815;-68
2024/03/20 00:29:40;;;;;;;7.07;4.30;;;;;;;1.51;57.92;93552.75;520753;28;927;-68
2024/03/20 00:29:56;;;;;;;6.32;4.55;;;;;;;1.43;57.52;93557.16;520896;28;772;-67
2024/03/20 00:30:11;;;;;;;7.65;5.43;;;;;;;1.36;57.64;93563.06;520851;28;796;-68
2024/03/20 00:30:27;;;;;;;8.73;5.80;;;;;;;1.36;58.05;93554.16;520848;28;769;-68
2024/03/20 00:30:42;;;;;;;8.85;6.03;;;;;;;1.36;58.05;93556.88;520768;28;801;-67
2024/03/20 00:30:58;;;;;;;8.63;6.27;;;;;;;1.37;58.00;93555.63;520835;28;899;-68
2024/03/20 00:31:13;;;;;;;8.13;5.63;;;;;;;1.31;58.62;93555.59;520821;28;1052;-68
2024/03/20 00:31:29;;;;;;;9.07;5.07;;;;;;;1.25;59.04;93559.53;520787;28;817;-67
2024/03/20 00:31:44;;;;;;;7.22;4.28;;;;;;;1.20;58.79;93555.53;520858;28;804;-67
2024/03/20 00:32:00;;;;;;;4.17;3.50;;;;;;;1.18;58.81;93557.25;520805;28;972;-68
2024/03/20 00:32:15;;;;;;;4.03;3.40;;;;;;;1.18;58.52;93558.00;520907;28;761;-67
2024/03/20 00:32:30;;;;;;;4.10;3.40;;;;;;;1.14;58.68;93554.03;520775;28;773;-68
2024/03/20 00:32:46;;;;;;;4.20;3.40;;;;;;;1.14;59.25;93551.31;520804;28;808;-68
2024/03/20 00:33:03;;;;;;;3.97;3.05;;;;;;;1.10;58.76;93556.22;520884;28;749;-67
2024/03/20 00:33:18;;;;;;;3.22;2.65;;;;;;;1.06;59.00;93556.44;520860;28;881;-67
2024/03/20 00:33:33;;;;;;;3.77;2.73;;;;;;;1.09;58.97;93554.72;520850;28;796;-67
2024/03/20 00:33:49;;;;;;;4.60;2.97;;;;;;;1.07;58.82;93547.06;520746;28;820;-68
2024/03/20 00:34:04;;;;;;;3.33;2.63;;;;;;;1.11;58.75;93549.53;520858;28;820;-68
2024/03/20 00:34:20;;;;;;;3.27;2.43;;;;;;;1.15;58.74;93550.09;520778;28;764;-67
2024/03/20 00:34:35;;;;;;;3.55;2.50;;;;;;;1.18;57.96;93549.09;520868;28;828;-67
2024/03/20 00:34:51;;;;;;;2.77;2.40;;;;;;;1.21;57.60;93550.84;520777;28;887;-67
2024/03/20 00:35:08;;;;;;;2.85;2.40;;;;;;;1.23;57.41;93542.97;520837;28;812;-67
2024/03/20 00:36:35;;;;;;;3.40;3.03;;;;;;;1.40;56.64;93541.81;520814;28;668;-69
2024/03/20 00:36:51;;;;;;;3.47;3.03;;;;;;;1.40;56.37;93539.09;520811;28;1085;-69
2024/03/20 00:37:06;;;;;;;3.15;2.85;;;;;;;1.41;56.71;93540.56;520914;28;808;-69
2024/03/20 00:37:22;;;;;;;3.03;2.73;;;;;;;1.41;56.77;93546.00;520828;28;785;-69
2024/03/20 00:37:37;;;;;;;3.10;2.80;;;;;;;1.43;56.46;93543.53;520817;28;1984;-69
2024/03/20 00:37:53;;;;;;;3.00;2.70;;;;;;;1.43;56.77;93542.78;520761;28;753;-70
2024/03/20 00:38:08;;;;;;;3.17;2.80;;;;;;;1.43;56.39;93543.53;520795;28;773;-69
2024/03/20 00:38:24;;;;;;;3.27;2.93;;;;;;;1.43;56.30;93551.69;520858;28;840;-69
2024/03/20 00:38:41;;;;;;;3.00;2.70;;;;;;;1.36;56.35;93535.88;520803;28;813;-69
2024/03/20 00:38:57;;;;;;;3.20;2.83;;;;;;;1.42;56.51;93549.47;520834;28;863;-69
2024/03/20 00:39:12;;;;;;;3.38;3.00;;;;;;;1.42;56.73;93550.22;520822;28;793;-69
2024/03/20 00:39:28;;;;;;;3.20;2.87;;;;;;;1.41;56.79;93548.72;520786;28;900;-69
2024/03/20 00:39:43;;;;;;;3.38;2.90;;;;;;;1.41;57.34;93551.44;520847;28;808;-69
2024/03/20 00:39:58;;;;;;;3.30;2.77;;;;;;;1.42;57.58;93547.50;520826;28;781;-69
2024/03/20 00:40:14;;;;;;;3.63;2.90;;;;;;;1.42;57.40;93546.75;520810;28;852;-69
2024/03/20 00:40:29;;;;;;;3.53;2.90;;;;;;;1.42;57.65;93541.31;520793;28;836;-69
2024/03/20 00:40:47;;;;;;;3.15;2.85;;;;;;;1.43;57.51;93542.78;520781;28;891;-69
2024/03/20 00:41:04;;;;;;;3.92;3.03;;;;;;;1.42;58.02;93549.47;520904;28;867;-69
2024/03/20 00:41:19;;;;;;;4.95;3.35;;;;;;;1.41;58.05;93547.97;520830;28;907;-69
2024/03/20 00:41:35;;;;;;;4.45;3.50;;;;;;;1.40;58.59;93547.25;520904;28;827;-69
2024/03/20 00:41:50;;;;;;;4.27;3.47;;;;;;;1.41;58.47;93546.00;520659;28;785;-68
2024/03/20 00:42:06;;;;;;;3.88;3.33;;;;;;;1.41;58.70;93551.44;520482;28;812;-69
2024/03/20 00:42:24;;;;;;;4.23;3.10;;;;;;;1.42;58.75;93544.78;520703;28;812;-69
2024/03/20 00:42:39;;;;;;;5.18;3.42;;;;;;;1.44;59.20;93550.50;520593;28;793;-69
2024/03/20 00:42:55;;;;;;;4.27;3.47;;;;;;;1.46;59.18;93547.28;520601;28;788;-68
2024/03/20 00:43:10;;;;;;;3.97;3.23;;;;;;;1.47;58.58;93549.50;520710;28;924;-69
2024/03/20 00:43:26;;;;;;;7.40;3.73;;;;;;;1.48;58.42;93545.56;520676;28;883;-68
2024/03/20 00:43:41;;;;;;;6.47;3.65;;;;;;;1.49;58.39;93551.75;520761;28;781;-68
2024/03/20 00:43:56;;;;;;;3.93;3.40;;;;;;;1.44;58.78;93542.31;520850;28;789;-68
2024/03/20 00:44:12;;;;;;;4.00;3.40;;;;;;;1.38;59.03;93544.28;520855;28;888;-69
2024/03/20 00:44:27;;;;;;;3.97;3.27;;;;;;;1.30;59.65;93545.94;520876;28;816;-69
2024/03/20 00:44:43;;;;;;;3.60;3.20;;;;;;;1.25;59.77;93545.94;520722;28;1152;-69
2024/03/20 00:44:58;;;;;;;3.40;3.07;;;;;;;1.23;59.79;93546.44;520803;28;832;-69
2024/03/20 00:45:14;;;;;;;3.72;3.13;;;;;;;1.20;59.81;93549.34;520817;28;828;-68
2024/03/20 00:45:29;;;;;;;4.07;3.03;;;;;;;1.18;60.04;93552.56;520804;28;749;-68
2024/03/20 00:45:45;;;;;;;4.22;3.00;;;;;;;1.17;59.53;93544.91;520850;28;903;-68
2024/03/20 00:46:00;;;;;;;4.07;3.10;;;;;;;1.18;59.78;93551.81;520864;28;816;-68
2024/03/20 00:46:16;;;;;;;3.63;3.00;;;;;;;1.19;59.70;93547.88;520848;28;868;-68
2024/03/20 00:46:31;;;;;;;4.37;3.47;;;;;;;1.19;60.10;93551.31;520824;28;847;-68
2024/03/20 00:46:47;;;;;;;4.72;3.67;;;;;;;1.19;59.80;93548.59;520854;28;788;-68
2024/03/20 00:47:04;;;;;;;4.13;3.50;;;;;;;1.16;60.01;93548.84;520854;28;831;-69
2024/03/20 00:47:20;;;;;;;4.85;3.67;;;;;;;1.11;59.49;93553.00;520762;28;884;-68
2024/03/20 00:47:36;;;;;;;5.78;4.00;;;;;;;1.08;59.79;93547.81;520739;28;1075;-68
2024/03/20 00:47:52;;;;;;;5.30;3.83;;;;;;;1.00;59.50;93547.50;520739;28;1141;-68
2024/03/20 00:48:08;;;;;;;5.00;4.25;;;;;;;0.97;59.36;93545.78;520674;28;1145;-68
2024/03/20 00:48:23;;;;;;;5.78;5.00;;;;;;;0.96;59.25;93546.97;520769;28;847;-68
2024/03/20 00:48:38;;;;;;;7.60;5.07;;;;;;;0.96;58.93;93546.97;520861;28;813;-68
2024/03/20 00:48:54;;;;;;;8.70;5.38;;;;;;;0.95;58.80;93547.47;520860;28;855;-68
2024/03/20 00:49:09;;;;;;;7.27;5.60;;;;;;;0.95;58.77;93548.22;520778;28;777;-68
2024/03/20 00:49:25;;;;;;;7.10;5.68;;;;;;;0.94;59.27;93543.25;520814;28;852;-68
2024/03/20 00:49:40;;;;;;;8.13;5.20;;;;;;;0.94;59.13;93549.44;520847;28;792;-68
2024/03/20 00:49:56;;;;;;;8.63;4.88;;;;;;;0.99;58.74;93545.28;520914;28;781;-68
2024/03/20 00:50:11;;;;;;;7.67;4.90;;;;;;;0.99;59.11;93543.31;520874;28;855;-68
2024/03/20 00:50:27;;;;;;;6.53;4.82;;;;;;;1.02;59.32;93542.31;520803;28;769;-68
2024/03/20 00:50:42;;;;;;;6.97;4.90;;;;;;;1.06;58.86;93551.00;520796;28;933;-69
2024/03/20 00:50:57;;;;;;;6.95;4.40;;;;;;;1.09;59.16;93549.28;520891;28;836;-68
2024/03/20 00:51:13;;;;;;;6.37;4.27;;;;;;;1.11;59.00;93552.25;520799;28;1038;-68
2024/03/20 00:51:28;;;;;;;5.50;4.30;;;;;;;1.11;58.56;93550.28;520777;28;918;-68
2024/03/20 00:51:44;;;;;;;5.13;4.30;;;;;;;1.13;58.49;93549.81;520814;28;878;-68
2024/03/20 00:51:59;;;;;;;5.67;4.63;;;;;;;1.14;58.40;93554.78;520748;28;812;-68
2024/03/20 00:52:15;;;;;;;6.18;4.80;;;;;;;1.14;58.47;93549.34;520884;28;788;-68
2024/03/20 00:52:30;;;;;;;6.30;5.10;;;;;;;1.15;58.80;93552.81;520689;28;832;-68
2024/03/20 00:52:46;;;;;;;5.77;5.10;;;;;;;1.17;59.01;93553.06;520861;28;758;-68
2024/03/20 00:53:01;;;;;;;6.30;5.00;;;;;;;1.16;59.05;93546.88;520803;28;829;-68
2024/03/20 00:53:17;;;;;;;7.10;5.05;;;;;;;1.15;59.10;93556.25;520674;28;824;-69
2024/03/20 00:53:32;;;;;;;8.77;5.53;;;;;;;1.17;59.36;93559.22;520788;28;757;-68
2024/03/20 00:53:48;;;;;;;8.93;6.18;;;;;;;1.16;59.36;93557.00;520833;28;737;-69
2024/03/20 00:54:03;;;;;;;7.47;6.10;;;;;;;1.17;59.31;93556.50;520820;28;788;-68
2024/03/20 00:54:19;;;;;;;8.90;6.57;;;;;;;1.18;59.26;93551.81;520836;28;745;-68
2024/03/20 00:54:34;;;;;;;10.10;7.30;;;;;;;1.20;58.60;93555.53;520739;28;844;-68
2024/03/20 00:54:49;;;;;;;9.70;7.10;;;;;;;1.23;58.40;93548.41;520802;28;788;-68
2024/03/20 00:55:05;;;;;;;9.73;7.03;;;;;;;1.24;58.86;93550.63;520883;28;792;-69
2024/03/20 00:55:21;;;;;;;11.23;7.90;;;;;;;1.25;58.87;93557.56;520825;28;761;-68
2024/03/20 00:55:36;;;;;;;12.50;8.53;;;;;;;1.22;58.59;93555.06;520809;28;793;-68
2024/03/20 00:55:52;;;;;;;10.67;7.80;;;;;;;1.24;58.66;93550.63;520766;28;887;-68
2024/03/20 00:56:07;;;;;;;9.47;6.93;;;;;;;1.26;59.10;93556.31;520804;28;765;-68
2024/03/20 00:56:24;;;;;;;9.50;6.55;;;;;;;1.07;58.63;93530.00;520816;28;797;-69
2024/03/20 00:56:39;;;;;;;13.65;7.05;;;;;;;1.23;59.18;93562.75;520829;28;828;-68
2024/03/20 00:56:55;;;;;;;14.50;7.88;;;;;;;1.18;58.80;93555.28;520845;28;793;-68
2024/03/20 00:57:10;;;;;;;10.53;7.60;;;;;;;1.17;59.19;93558.50;520812;28;805;-68
2024/03/20 00:57:26;;;;;;;9.98;7.05;;;;;;;1.16;58.86;93560.47;520678;28;2015;-68
2024/03/20 00:57:43;;;;;;;9.57;7.37;;;;;;;1.17;58.93;93555.78;520707;28;825;-69
2024/03/20 00:57:58;;;;;;;9.15;7.32;;;;;;;1.17;58.92;93561.94;520761;28;836;-69
2024/03/20 00:58:14;;;;;;;9.75;7.50;;;;;;;1.18;59.17;93555.28;520771;28;821;-68
2024/03/20 00:58:30;;;;;;;10.50;7.67;;;;;;;1.18;59.05;93560.72;520754;28;828;-68
2024/03/20 00:58:45;;;;;;;9.48;6.93;;;;;;;1.18;59.17;93555.28;520819;28;876;-68
2024/03/20 00:59:02;;;;;;;9.27;6.60;;;;;;;1.13;59.43;93555.22;520810;28;773;-68
2024/03/20 00:59:17;;;;;;;9.32;6.78;;;;;;;1.06;59.54;93558.44;520829;28;812;-68
2024/03/20 00:59:33;;;;;;;8.13;5.90;;;;;;;0.93;59.71;93561.56;520759;28;919;-68
2024/03/20 00:59:48;;;;;;;6.88;5.45;;;;;;;0.86;60.09;93558.53;520904;28;777;-68
2024/03/20 01:00:05;;;;;;;6.70;5.33;;;;;;;0.81;60.16;93551.81;520770;28;899;-68
2024/03/20 01:00:20;;;;;;;7.03;5.32;;;;;;;0.78;59.91;93552.78;520531;28;972;-68
2024/03/20 01:00:36;;;;;;;7.37;5.57;;;;;;;0.76;59.77;93561.41;520781;28;788;-68
2024/03/20 01:00:51;;;;;;;6.65;5.50;;;;;;;0.71;60.54;93556.69;520784;28;875;-68
2024/03/20 01:01:07;;;;;;;6.90;5.40;;;;;;;0.68;60.97;93559.63;520820;28;903;-68
2024/03/20 01:01:22;;;;;;;6.80;5.22;;;;;;;0.62;60.79;93550.69;520751;28;844;-68
2024/03/20 01:01:38;;;;;;;7.40;5.07;;;;;;;0.61;60.67;93554.63;520799;28;785;-68
2024/03/20 01:01:53;;;;;;;7.20;5.00;;;;;;;0.61;60.54;93558.09;520855;28;792;-68
2024/03/20 01:02:08;;;;;;;5.83;4.60;;;;;;;0.62;60.53;93556.88;520797;28;805;-68
2024/03/20 01:02:24;;;;;;;6.37;4.77;;;;;;;0.64;60.14;93553.66;520858;28;781;-68
2024/03/20 01:02:40;;;;;;;5.93;4.53;;;;;;;0.66;60.30;93554.69;520728;28;856;-68
2024/03/20 01:02:55;;;;;;;5.25;4.35;;;;;;;0.69;60.29;93550.25;520782;28;809;-68
2024/03/20 01:03:11;;;;;;;6.73;4.80;;;;;;;0.71;60.21;93551.25;520755;28;857;-68
2024/03/20 01:03:26;;;;;;;6.38;4.72;;;;;;;0.72;60.25;93557.44;520768;28;805;-68
2024/03/20 01:03:42;;;;;;;5.13;4.63;;;;;;;0.75;59.71;93548.31;520727;28;820;-68
2024/03/20 01:03:57;;;;;;;5.37;4.70;;;;;;;0.77;59.79;93552.06;520856;28;792;-68
2024/03/20 01:04:14;;;;;;;4.67;4.27;;;;;;;0.80;60.29;93555.78;520739;28;840;-68
2024/03/20 01:04:29;;;;;;;4.38;3.97;;;;;;;0.80;60.28;93553.06;520699;28;943;-68
2024/03/20 01:04:45;;;;;;;5.18;4.25;;;;;;;0.76;60.30;93555.97;520854;28;863;-68
2024/03/20 01:05:00;;;;;;;5.67;4.40;;;;;;;0.75;60.27;93559.19;520763;28;887;-68
2024/03/20 01:05:16;;;;;;;4.83;4.03;;;;;;;0.75;60.43;93549.06;520812;28;761;-68
2024/03/20 01:05:31;;;;;;;4.63;4.05;;;;;;;0.77;60.61;93551.31;520814;28;809;-68
2024/03/20 01:05:47;;;;;;;4.27;3.80;;;;;;;0.79;60.38;93548.84;520831;28;797;-68
2024/03/20 01:06:03;;;;;;;4.15;3.30;;;;;;;0.82;60.40;93553.31;520807;28;1143;-68
2024/03/20 01:06:18;;;;;;;4.43;3.13;;;;;;;0.85;59.90;93549.63;520779;28;829;-68
2024/03/20 01:06:34;;;;;;;3.90;3.00;;;;;;;0.88;59.78;93548.66;520821;28;923;-68
2024/03/20 01:06:49;;;;;;;4.43;3.30;;;;;;;0.90;59.67;93554.38;520771;28;887;-68
2024/03/20 01:07:05;;;;;;;4.67;3.57;;;;;;;0.92;59.31;93551.91;520859;28;973;-68
2024/03/20 01:07:20;;;;;;;4.53;3.35;;;;;;;0.95;59.03;93553.66;520748;28;797;-68
2024/03/20 01:07:36;;;;;;;4.63;3.42;;;;;;;0.97;59.23;93547.75;520824;28;809;-68
2024/03/20 01:07:51;;;;;;;4.33;3.60;;;;;;;0.99;59.08;93550.72;520759;28;792;-68
2024/03/20 01:08:07;;;;;;;3.72;3.33;;;;;;;1.00;59.15;93552.19;520836;28;796;-68
2024/03/20 01:08:22;;;;;;;4.00;3.30;;;;;;;1.01;59.33;93551.72;520592;28;939;-68
2024/03/20 01:08:40;;;;;;;4.67;3.47;;;;;;;1.02;59.00;93547.03;520796;28;781;-68
2024/03/20 01:08:55;;;;;;;3.95;3.22;;;;;;;0.98;59.08;93541.06;520600;28;868;-68
2024/03/20 01:09:11;;;;;;;3.57;3.27;;;;;;;1.04;59.31;93547.28;520601;28;1070;-68
2024/03/20 01:09:26;;;;;;;3.85;3.50;;;;;;;1.06;59.35;93553.00;520609;28;804;-69
2024/03/20 01:09:42;;;;;;;3.60;3.20;;;;;;;1.07;59.23;93549.03;520642;28;785;-68
2024/03/20 01:09:57;;;;;;;3.88;3.13;;;;;;;1.09;59.17;93552.75;520601;28;827;-68
2024/03/20 01:10:12;;;;;;;4.10;3.27;;;;;;;1.08;59.28;93543.13;520626;28;855;-69
2024/03/20 01:10:28;;;;;;;4.43;3.20;;;;;;;1.11;58.70;93549.53;520657;28;914;-68
2024/03/20 01:10:43;;;;;;;4.53;3.10;;;;;;;1.10;59.01;93554.25;520769;28;756;-69
2024/03/20 01:10:59;;;;;;;5.75;3.28;;;;;;;1.12;59.19;93551.03;520815;28;899;-68
2024/03/20 01:11:14;;;;;;;5.23;3.27;;;;;;;1.13;58.84;93544.38;520821;28;799;-68
2024/03/20 01:11:31;;;;;;;3.35;3.03;;;;;;;1.14;59.10;93546.63;520752;28;764;-68
2024/03/20 01:11:47;;;;;;;3.25;2.90;;;;;;;1.15;58.75;93547.38;520838;28;852;-68
2024/03/20 01:12:02;;;;;;;3.40;3.10;;;;;;;1.17;59.27;93544.91;520806;28;1096;-68
2024/03/20 01:12:18;;;;;;;4.63;3.22;;;;;;;1.18;58.82;93546.38;520829;28;832;-68
2024/03/20 01:12:36;;;;;;;6.37;3.33;;;;;;;1.19;59.05;93545.16;520762;28;819;-68
2024/03/20 01:12:52;;;;;;;5.20;3.50;;;;;;;1.19;58.83;93548.59;520721;28;935;-68
2024/03/20 01:13:07;;;;;;;4.03;3.20;;;;;;;1.19;58.69;93547.88;520860;28;882;-69
2024/03/20 01:13:23;;;;;;;3.97;3.38;;;;;;;1.18;58.93;93541.69;520678;28;930;-68
2024/03/20 01:13:38;;;;;;;3.77;3.47;;;;;;;1.16;58.91;93554.28;520751;28;890;-69
2024/03/20 01:13:53;;;;;;;3.35;3.05;;;;;;;1.13;58.97;93553.28;520811;28;852;-68
2024/03/20 01:14:09;;;;;;;3.43;3.10;;;;;;;1.09;59.32;93552.00;520774;28;804;-68
2024/03/20 01:14:25;;;;;;;4.20;3.43;;;;;;;1.04;59.78;93545.28;520790;28;740;-69
2024/03/20 01:14:41;;;;;;;3.80;3.20;;;;;;;0.97;59.82;93547.75;520797;28;1022;-69
2024/03/20 01:14:56;;;;;;;3.50;3.20;;;;;;;0.92;59.93;93546.47;520788;28;760;-68
2024/03/20 01:15:12;;;;;;;3.40;3.10;;;;;;;0.89;59.71;93552.88;520785;28;926;-69
2024/03/20 01:15:27;;;;;;;3.30;3.00;;;;;;;0.85;60.36;93551.59;520758;28;760;-68
2024/03/20 01:15:43;;;;;;;3.35;2.80;;;;;;;0.83;60.43;93549.38;520712;28;916;-69
2024/03/20 01:15:59;;;;;;;3.50;2.83;;;;;;;0.67;60.25;93533.69;520874;28;788;-68
2024/03/20 01:16:14;;;;;;;3.50;3.10;;;;;;;0.77;60.24;93552.06;520837;28;898;-68
2024/03/20 01:16:29;;;;;;;3.63;3.03;;;;;;;0.77;60.08;93551.31;520742;28;816;-69
2024/03/20 01:16:48;;;;;;;3.83;3.17;;;;;;;0.76;60.59;93549.81;520784;28;855;-68
2024/03/20 01:17:04;;;;;;;5.00;3.55;;;;;;;0.74;60.25;93553.00;520789;28;918;-68
2024/03/20 01:17:20;;;;;;;5.55;3.50;;;;;;;0.68;60.61;93549.50;520822;28;866;-69
2024/03/20 01:17:36;;;;;;;5.07;3.70;;;;;;;0.59;61.16;93544.25;520797;28;1974;-68
2024/03/20 01:17:51;;;;;;;5.10;3.92;;;;;;;0.52;61.34;93552.81;520781;28;1084;-68
2024/03/20 01:18:07;;;;;;;5.07;4.33;;;;;;;0.44;61.70;93553.75;520785;28;760;-69
2024/03/20 01:18:23;;;;;;;5.20;4.67;;;;;;;0.36;61.66;93549.97;520637;28;1072;-69
2024/03/20 01:18:38;;;;;;;4.13;3.70;;;;;;;0.28;61.83;93555.09;520646;28;860;-68